createdAt,value
2022-12-07T00:01:47.229Z,9.90
2022-12-07T00:04:18.183Z,9.90
2022-12-07T00:06:48.051Z,9.90
2022-12-07T00:09:19.170Z,9.80
2022-12-07T00:11:50.382Z,9.80
2022-12-07T00:14:19.521Z,9.80
2022-12-07T00:16:51.856Z,9.80
2022-12-07T00:19:20.762Z,9.80
2022-12-07T00:21:49.472Z,9.80
2022-12-07T00:24:20.656Z,9.80
2022-12-07T00:26:49.023Z,9.80
2022-12-07T00:29:20.555Z,9.80
2022-12-07T00:31:53.140Z,9.70
2022-12-07T00:34:23.575Z,9.70
2022-12-07T00:36:52.678Z,9.70
2022-12-07T00:39:30.354Z,9.70
2022-12-07T00:41:58.607Z,9.70
2022-12-07T00:44:27.009Z,9.70
2022-12-07T00:46:56.824Z,9.70
2022-12-07T00:49:27.375Z,9.60
2022-12-07T00:52:00.985Z,9.60
2022-12-07T00:54:29.210Z,9.60
2022-12-07T00:56:57.447Z,9.60
2022-12-07T00:59:25.757Z,9.60
2022-12-07T01:01:54.090Z,9.60
2022-12-07T01:04:23.730Z,9.50
2022-12-07T01:06:56.536Z,9.50
2022-12-07T01:09:25.518Z,9.50
2022-12-07T01:11:53.964Z,9.50
2022-12-07T01:14:25.363Z,9.50
2022-12-07T01:16:53.968Z,9.50
2022-12-07T01:19:29.348Z,9.60
2022-12-07T01:21:57.646Z,9.50
2022-12-07T01:24:25.958Z,9.50
2022-12-07T01:26:54.195Z,9.50
2022-12-07T01:29:22.573Z,9.50
2022-12-07T01:31:51.685Z,9.50
2022-12-07T01:34:19.914Z,9.50
2022-12-07T01:36:52.183Z,9.50
2022-12-07T01:39:20.450Z,9.50
2022-12-07T01:41:48.703Z,9.50
2022-12-07T01:44:20.526Z,9.50
2022-12-07T01:46:50.348Z,9.40
2022-12-07T01:49:23.915Z,9.40
2022-12-07T01:52:02.346Z,9.40
2022-12-07T01:54:30.873Z,9.40
2022-12-07T01:57:03.368Z,9.40
2022-12-07T01:59:31.669Z,9.40
2022-12-07T02:02:00.474Z,9.40
2022-12-07T02:04:29.390Z,9.40
2022-12-07T02:07:03.298Z,9.40
2022-12-07T02:09:31.630Z,9.40
2022-12-07T02:12:00.143Z,9.40
2022-12-07T02:14:28.510Z,9.40
2022-12-07T02:17:09.220Z,9.40
2022-12-07T02:20:17.212Z,9.30
2022-12-07T02:23:19.181Z,9.30
2022-12-07T02:26:05.676Z,9.30
2022-12-07T02:28:40.320Z,9.30
2022-12-07T02:31:17.676Z,9.30
2022-12-07T02:33:53.145Z,9.30
2022-12-07T02:36:27.899Z,9.30
2022-12-07T02:39:01.836Z,9.30
2022-12-07T02:41:36.200Z,9.30
2022-12-07T02:44:09.177Z,9.30
2022-12-07T02:46:43.384Z,9.30
2022-12-07T02:49:12.876Z,9.30
2022-12-07T02:51:43.321Z,9.30
2022-12-07T02:54:15.132Z,9.30
2022-12-07T02:56:53.091Z,9.30
2022-12-07T02:59:33.511Z,9.30
2022-12-07T03:02:15.464Z,9.30
2022-12-07T03:04:53.110Z,9.30
2022-12-07T03:07:30.024Z,9.30
2022-12-07T03:10:17.068Z,9.20
2022-12-07T03:12:49.966Z,9.30
2022-12-07T03:15:24.401Z,9.30
2022-12-07T03:17:56.207Z,9.30
2022-12-07T03:20:35.335Z,9.20
2022-12-07T03:23:06.788Z,9.20
2022-12-07T03:25:37.580Z,9.20
2022-12-07T03:28:09.386Z,9.20
2022-12-07T03:30:47.045Z,9.20
2022-12-07T03:33:24.263Z,9.20
2022-12-07T03:36:00.803Z,9.20
2022-12-07T03:38:41.627Z,9.20
2022-12-07T03:41:19.303Z,9.10
2022-12-07T03:43:47.750Z,9.10
2022-12-07T03:46:21.614Z,9.10
2022-12-07T03:49:03.270Z,9.00
2022-12-07T03:51:38.837Z,9.00
2022-12-07T03:54:13.948Z,9.10
2022-12-07T03:56:43.254Z,9.00
2022-12-07T03:59:13.026Z,9.00
2022-12-07T04:01:43.373Z,9.00
2022-12-07T04:04:13.452Z,9.00
2022-12-07T04:06:41.678Z,9.00
2022-12-07T04:09:09.919Z,8.90
2022-12-07T04:11:38.186Z,8.90
2022-12-07T04:14:21.907Z,8.90
2022-12-07T04:16:51.735Z,8.90
2022-12-07T04:19:24.367Z,8.90
2022-12-07T04:21:52.790Z,8.90
2022-12-07T04:24:30.007Z,8.90
2022-12-07T04:27:12.430Z,8.90
2022-12-07T04:29:40.881Z,8.90
2022-12-07T04:32:09.266Z,8.90
2022-12-07T04:34:39.109Z,8.90
2022-12-07T04:37:07.381Z,8.90
2022-12-07T04:39:36.307Z,8.90
2022-12-07T04:42:08.195Z,8.90
2022-12-07T04:45:00.287Z,9.00
2022-12-07T04:47:32.231Z,9.00
2022-12-07T04:50:02.381Z,9.00
2022-12-07T04:52:33.246Z,9.00
2022-12-07T04:55:01.955Z,9.10
2022-12-07T04:57:41.511Z,9.10
2022-12-07T05:00:19.707Z,9.10
2022-12-07T05:02:47.996Z,9.10
2022-12-07T05:05:40.304Z,9.10
2022-12-07T05:08:08.607Z,9.10
2022-12-07T05:10:36.820Z,9.10
2022-12-07T05:13:05.102Z,9.10
2022-12-07T05:15:33.633Z,9.10
2022-12-07T05:18:07.436Z,9.10
2022-12-07T05:20:42.236Z,9.10
2022-12-07T05:23:10.926Z,9.10
2022-12-07T05:25:39.292Z,9.10
2022-12-07T05:28:07.871Z,9.10
2022-12-07T05:30:36.137Z,9.00
2022-12-07T05:33:04.904Z,9.00
2022-12-07T05:35:34.499Z,9.00
2022-12-07T05:38:04.111Z,9.00
2022-12-07T05:40:32.443Z,8.90
2022-12-07T05:43:04.175Z,8.90
2022-12-07T05:45:33.326Z,8.90
2022-12-07T05:48:01.645Z,8.90
2022-12-07T05:50:30.036Z,8.90
2022-12-07T05:52:58.540Z,8.90
2022-12-07T05:55:28.202Z,8.90
2022-12-07T05:58:13.040Z,8.80
2022-12-07T06:00:41.279Z,8.80
2022-12-07T06:03:09.675Z,8.80
2022-12-07T06:05:38.016Z,8.70
2022-12-07T06:08:06.666Z,8.80
2022-12-07T06:10:36.607Z,8.80
2022-12-07T06:13:03.862Z,8.80
2022-12-07T06:15:32.118Z,8.80
2022-12-07T06:18:00.453Z,8.80
2022-12-07T06:20:28.673Z,8.80
2022-12-07T06:22:56.941Z,8.90
2022-12-07T06:25:25.172Z,8.90
2022-12-07T06:27:56.367Z,8.90
2022-12-07T06:30:25.280Z,8.90
2022-12-07T06:32:53.578Z,8.90
2022-12-07T06:35:21.849Z,9.00
2022-12-07T06:37:50.093Z,9.00
2022-12-07T06:40:18.496Z,9.00
2022-12-07T06:42:46.899Z,9.00
2022-12-07T06:45:16.664Z,9.00
2022-12-07T06:47:45.748Z,9.00
2022-12-07T06:50:15.509Z,9.00
2022-12-07T06:52:44.256Z,9.00
2022-12-07T06:55:14.771Z,9.10
2022-12-07T06:57:43.198Z,9.10
2022-12-07T07:00:17.002Z,9.10
2022-12-07T07:02:54.844Z,9.10
2022-12-07T07:05:31.463Z,9.10
2022-12-07T07:10:51.777Z,9.20
2022-12-07T07:13:20.209Z,9.20
2022-12-07T07:15:48.643Z,9.20
2022-12-07T07:18:18.266Z,9.20
2022-12-07T07:20:46.559Z,9.20
2022-12-07T07:23:15.244Z,9.20
2022-12-07T07:25:43.544Z,9.20
2022-12-07T07:28:11.970Z,9.20
2022-12-07T07:30:40.430Z,9.10
2022-12-07T07:33:12.636Z,9.20
2022-12-07T07:35:42.739Z,9.20
2022-12-07T07:38:11.295Z,9.10
2022-12-07T07:40:39.548Z,9.10
2022-12-07T07:43:07.822Z,9.00
2022-12-07T07:45:36.143Z,9.00
2022-12-07T07:48:06.190Z,9.00
2022-12-07T07:50:34.416Z,9.00
2022-12-07T07:53:04.157Z,8.90
2022-12-07T07:55:32.479Z,8.90
2022-12-07T07:58:00.717Z,8.90
2022-12-07T08:00:29.165Z,8.90
2022-12-07T08:03:00.297Z,8.90
2022-12-07T08:05:28.538Z,8.90
2022-12-07T08:07:57.026Z,8.90
2022-12-07T08:10:27.483Z,8.90
2022-12-07T08:13:14.836Z,8.90
2022-12-07T08:15:44.743Z,8.90
2022-12-07T08:18:13.915Z,8.90
2022-12-07T08:20:42.830Z,8.90
2022-12-07T08:23:12.397Z,9.00
2022-12-07T08:25:43.974Z,9.00
2022-12-07T08:28:12.351Z,9.00
2022-12-07T08:30:40.732Z,9.00
2022-12-07T08:33:09.016Z,9.00
2022-12-07T08:35:37.280Z,8.90
2022-12-07T08:38:05.653Z,8.90
2022-12-07T08:40:33.939Z,8.90
2022-12-07T08:43:03.602Z,9.00
2022-12-07T08:45:33.496Z,9.00
2022-12-07T08:48:06.160Z,9.00
2022-12-07T08:50:34.992Z,9.00
2022-12-07T08:53:05.541Z,9.00
2022-12-07T08:55:35.684Z,9.00
2022-12-07T08:58:05.821Z,9.00
2022-12-07T09:00:34.107Z,9.00
2022-12-07T09:03:02.387Z,9.00
2022-12-07T09:05:30.658Z,9.10
2022-12-07T09:08:02.287Z,9.10
2022-12-07T09:10:30.704Z,9.10
2022-12-07T09:13:01.799Z,9.10
2022-12-07T09:15:32.385Z,9.10
2022-12-07T09:18:00.894Z,9.10
2022-12-07T09:20:29.219Z,9.10
2022-12-07T09:22:57.638Z,9.10
2022-12-07T09:25:25.931Z,9.10
2022-12-07T09:27:58.775Z,9.10
2022-12-07T09:30:30.192Z,9.20
2022-12-07T09:33:00.173Z,9.20
2022-12-07T09:35:29.584Z,9.10
2022-12-07T09:38:01.373Z,9.20
2022-12-07T09:40:30.563Z,9.30
2022-12-07T09:42:58.970Z,9.40
2022-12-07T09:45:33.340Z,9.40
2022-12-07T09:48:17.208Z,9.40
2022-12-07T09:50:45.600Z,9.40
2022-12-07T09:53:25.028Z,9.40
2022-12-07T09:55:54.612Z,9.30
2022-12-07T09:58:25.087Z,9.40
2022-12-07T10:00:58.001Z,9.40
2022-12-07T10:03:29.356Z,9.50
2022-12-07T10:05:59.351Z,9.50
2022-12-07T10:08:27.868Z,9.50
2022-12-07T10:10:58.456Z,9.60
2022-12-07T10:13:38.186Z,9.60
2022-12-07T10:16:08.026Z,9.70
2022-12-07T10:18:39.444Z,9.70
2022-12-07T10:21:14.014Z,9.70
2022-12-07T10:23:44.713Z,9.70
2022-12-07T10:26:29.206Z,9.80
2022-12-07T10:28:58.193Z,9.80
2022-12-07T10:31:42.265Z,9.80
2022-12-07T10:34:23.338Z,9.90
2022-12-07T10:36:51.809Z,10.00
2022-12-07T10:39:21.531Z,10.10
2022-12-07T10:41:58.246Z,10.10
2022-12-07T10:44:28.263Z,10.10
2022-12-07T10:47:21.439Z,10.10
2022-12-07T10:50:33.267Z,10.00
2022-12-07T10:53:26.940Z,10.00
2022-12-07T10:56:35.324Z,9.90
2022-12-07T10:59:25.005Z,9.90
2022-12-07T11:02:03.926Z,9.90
2022-12-07T11:04:38.371Z,9.90
2022-12-07T11:07:16.697Z,9.80
2022-12-07T11:10:08.842Z,9.80
2022-12-07T11:12:51.312Z,9.90
2022-12-07T11:15:23.397Z,9.90
2022-12-07T11:18:01.641Z,9.90
2022-12-07T11:20:42.248Z,10.00
2022-12-07T11:23:23.465Z,10.00
2022-12-07T11:26:00.737Z,10.00
2022-12-07T11:28:43.835Z,10.00
2022-12-07T11:31:25.778Z,10.00
2022-12-07T11:34:08.533Z,9.90
2022-12-07T11:36:44.305Z,9.90
2022-12-07T11:39:31.033Z,9.90
2022-12-07T11:42:06.257Z,9.90
2022-12-07T11:44:38.990Z,9.90
2022-12-07T11:47:20.790Z,9.80
2022-12-07T11:49:56.116Z,9.80
2022-12-07T11:52:32.719Z,9.80
2022-12-07T11:55:04.539Z,9.80
2022-12-07T11:57:39.741Z,9.90
2022-12-07T12:00:17.291Z,9.90
2022-12-07T12:02:51.525Z,9.80
2022-12-07T12:05:23.062Z,9.80
2022-12-07T12:11:02.106Z,9.80
2022-12-07T12:17:14.179Z,9.80
2022-12-07T12:19:44.958Z,9.70
2022-12-07T12:22:18.728Z,9.80
2022-12-07T12:24:53.339Z,9.80
2022-12-07T12:27:27.276Z,9.80
2022-12-07T12:30:01.499Z,9.80
2022-12-07T12:32:56.796Z,9.80
2022-12-07T12:35:49.505Z,9.80
2022-12-07T12:38:34.520Z,9.80
2022-12-07T12:41:03.952Z,9.80
2022-12-07T12:43:54.299Z,9.80
2022-12-07T12:46:50.584Z,9.80
2022-12-07T12:49:44.204Z,9.80
2022-12-07T12:53:00.327Z,9.80
2022-12-07T12:56:06.063Z,9.90
2022-12-07T12:58:37.609Z,10.00
2022-12-07T13:01:48.428Z,10.10
2022-12-07T13:04:38.939Z,10.10
2022-12-07T13:07:11.231Z,10.20
2022-12-07T13:09:46.543Z,10.20
2022-12-07T13:12:17.777Z,10.20
2022-12-07T13:14:58.004Z,10.20
2022-12-07T13:17:59.342Z,10.20
2022-12-07T13:20:50.470Z,10.20
2022-12-07T13:23:26.614Z,10.30
2022-12-07T13:26:05.241Z,10.40
2022-12-07T13:28:39.720Z,10.40
2022-12-07T13:31:32.949Z,10.50
2022-12-07T13:34:01.784Z,10.50
2022-12-07T13:36:36.716Z,10.60
2022-12-07T13:39:19.899Z,10.70
2022-12-07T13:41:53.680Z,10.70
2022-12-07T13:44:22.911Z,10.70
2022-12-07T13:47:02.422Z,10.70
2022-12-07T13:49:32.920Z,10.70
2022-12-07T13:52:18.027Z,10.70
2022-12-07T13:54:51.472Z,10.70
2022-12-07T13:57:20.551Z,10.80
2022-12-07T13:59:49.025Z,10.80
2022-12-07T14:02:23.253Z,10.80
2022-12-07T14:04:52.977Z,10.70
2022-12-07T14:07:35.631Z,10.70
2022-12-07T14:10:06.455Z,10.70
2022-12-07T14:12:38.846Z,10.70
2022-12-07T14:15:09.558Z,10.70
2022-12-07T14:17:37.824Z,10.70
2022-12-07T14:20:21.890Z,10.70
2022-12-07T14:22:57.732Z,10.80
2022-12-07T14:25:28.469Z,10.80
2022-12-07T14:27:59.304Z,10.80
2022-12-07T14:30:30.014Z,10.80
2022-12-07T14:33:05.627Z,10.80
2022-12-07T14:35:34.782Z,10.80
2022-12-07T14:38:04.485Z,10.80
2022-12-07T14:40:33.499Z,10.80
2022-12-07T14:43:07.930Z,10.80
2022-12-07T14:45:36.351Z,10.80
2022-12-07T14:53:55.061Z,10.80
2022-12-07T14:56:25.925Z,10.80
2022-12-07T14:58:59.574Z,10.80
2022-12-07T15:01:27.837Z,10.80
2022-12-07T15:03:59.334Z,10.80
2022-12-07T15:06:27.634Z,10.80
2022-12-07T15:08:57.264Z,10.80
2022-12-07T15:11:44.695Z,10.80
2022-12-07T15:14:13.776Z,10.90
2022-12-07T15:17:07.581Z,10.90
2022-12-07T15:19:53.761Z,10.80
2022-12-07T15:22:21.979Z,10.80
2022-12-07T15:24:51.926Z,10.80
2022-12-07T15:27:20.168Z,10.90
2022-12-07T15:29:48.450Z,10.90
2022-12-07T15:32:16.735Z,10.90
2022-12-07T15:34:45.178Z,10.90
2022-12-07T15:37:13.485Z,10.90
2022-12-07T15:39:42.419Z,10.80
2022-12-07T15:42:12.048Z,10.90
2022-12-07T15:44:57.442Z,10.90
2022-12-07T15:47:25.660Z,10.90
2022-12-07T15:49:53.897Z,10.90
2022-12-07T15:52:22.187Z,10.90
2022-12-07T15:54:50.666Z,10.90
2022-12-07T15:57:25.163Z,10.90
2022-12-07T15:59:55.119Z,10.90
2022-12-07T16:02:24.550Z,10.90
2022-12-07T16:04:53.178Z,10.90
2022-12-07T16:07:21.527Z,10.90
2022-12-07T16:09:50.538Z,10.90
2022-12-07T16:12:20.162Z,10.90
2022-12-07T16:14:48.588Z,10.90
2022-12-07T16:17:16.911Z,10.90
2022-12-07T16:19:45.152Z,11.00
2022-12-07T16:22:13.410Z,10.90
2022-12-07T16:24:41.835Z,10.90
2022-12-07T16:27:10.332Z,10.90
2022-12-07T16:29:40.169Z,10.90
2022-12-07T16:32:08.444Z,10.90
2022-12-07T16:34:36.682Z,10.90
2022-12-07T16:37:05.920Z,10.90
2022-12-07T16:39:42.689Z,10.90
2022-12-07T16:42:10.931Z,10.90
2022-12-07T16:44:40.975Z,10.90
2022-12-07T16:47:09.666Z,10.90
2022-12-07T16:49:37.998Z,10.90
2022-12-07T16:52:19.979Z,10.90
2022-12-07T16:54:50.083Z,10.90
2022-12-07T16:57:23.115Z,10.90
2022-12-07T16:59:55.484Z,10.90
2022-12-07T17:02:24.839Z,11.00
2022-12-07T17:04:53.476Z,11.00
2022-12-07T17:07:21.730Z,11.00
2022-12-07T17:09:50.164Z,11.00
2022-12-07T17:12:19.824Z,11.00
2022-12-07T17:15:06.035Z,11.00
2022-12-07T17:17:35.980Z,11.00
2022-12-07T17:20:04.894Z,11.00
2022-12-07T17:22:33.140Z,11.00
2022-12-07T17:25:01.865Z,11.00
2022-12-07T17:27:30.674Z,11.00
2022-12-07T17:29:59.106Z,11.00
2022-12-07T17:32:27.382Z,11.10
2022-12-07T17:34:57.093Z,11.10
2022-12-07T17:37:25.312Z,11.10
2022-12-07T17:39:56.983Z,11.10
2022-12-07T17:42:46.482Z,11.10
2022-12-07T17:45:14.858Z,11.10
2022-12-07T17:47:43.165Z,11.10
2022-12-07T17:50:13.340Z,11.10
2022-12-07T17:53:02.107Z,11.10
2022-12-07T17:55:39.020Z,11.10
2022-12-07T17:58:18.992Z,11.10
2022-12-07T18:00:47.283Z,11.10
2022-12-07T18:03:15.725Z,11.10
2022-12-07T18:05:47.477Z,11.10
2022-12-07T18:08:15.785Z,11.10
2022-12-07T18:10:44.092Z,11.20
2022-12-07T18:13:29.818Z,11.20
2022-12-07T18:15:58.715Z,11.20
2022-12-07T18:18:27.022Z,11.20
2022-12-07T18:20:56.740Z,11.20
2022-12-07T18:23:25.006Z,11.20
2022-12-07T18:25:53.584Z,11.20
2022-12-07T18:28:22.062Z,11.20
2022-12-07T18:31:14.758Z,11.20
2022-12-07T18:33:40.582Z,11.20
2022-12-07T18:36:11.550Z,11.20
2022-12-07T18:38:40.580Z,11.20
2022-12-07T18:41:09.647Z,11.20
2022-12-07T18:43:38.396Z,11.20
2022-12-07T18:46:12.661Z,11.20
2022-12-07T18:48:40.968Z,11.20
2022-12-07T18:51:20.265Z,11.20
2022-12-07T18:53:48.951Z,11.20
2022-12-07T18:56:19.396Z,11.20
2022-12-07T18:59:08.679Z,11.20
2022-12-07T19:01:36.996Z,11.20
2022-12-07T19:04:05.887Z,11.20
2022-12-07T19:06:36.070Z,11.20
2022-12-07T19:09:04.849Z,11.20
2022-12-07T19:11:52.957Z,11.10
2022-12-07T19:14:24.878Z,11.10
2022-12-07T19:16:55.123Z,11.10
2022-12-07T19:19:25.952Z,11.10
2022-12-07T19:21:55.627Z,11.10
2022-12-07T19:24:24.146Z,11.10
2022-12-07T19:26:52.541Z,11.10
2022-12-07T19:29:20.862Z,11.10
2022-12-07T19:31:49.179Z,11.10
2022-12-07T19:34:18.438Z,11.10
2022-12-07T19:36:47.811Z,11.10
2022-12-07T19:39:17.863Z,11.10
2022-12-07T19:41:46.546Z,11.10
2022-12-07T19:44:16.277Z,11.10
2022-12-07T19:46:47.642Z,11.00
2022-12-07T19:49:16.437Z,11.10
2022-12-07T19:51:45.869Z,11.10
2022-12-07T19:54:17.512Z,11.10
2022-12-07T19:56:46.495Z,11.10
2022-12-07T19:59:16.445Z,11.10
2022-12-07T20:01:45.398Z,11.10
2022-12-07T20:04:16.608Z,11.10
2022-12-07T20:06:45.057Z,11.10
2022-12-07T20:09:15.006Z,11.10
2022-12-07T20:12:02.059Z,11.10
2022-12-07T20:14:31.696Z,11.10
2022-12-07T20:17:00.488Z,11.10
2022-12-07T20:19:28.920Z,11.20
2022-12-07T20:21:57.497Z,11.10
2022-12-07T20:24:27.350Z,11.10
2022-12-07T20:26:57.898Z,11.10
2022-12-07T20:29:26.588Z,11.20
2022-12-07T20:31:56.005Z,11.10
2022-12-07T20:34:25.366Z,11.20
2022-12-07T20:36:54.277Z,11.20
2022-12-07T20:39:23.884Z,11.20
2022-12-07T20:42:10.287Z,11.20
2022-12-07T20:44:40.000Z,11.20
2022-12-07T20:47:08.697Z,11.20
2022-12-07T20:49:36.948Z,11.20
2022-12-07T20:52:05.688Z,11.20
2022-12-07T20:54:33.952Z,11.20
2022-12-07T20:57:02.199Z,11.20
2022-12-07T20:59:30.688Z,11.30
2022-12-07T21:02:00.388Z,11.30
2022-12-07T21:04:28.740Z,11.30
2022-12-07T21:06:56.989Z,11.30
2022-12-07T21:09:27.070Z,11.30
2022-12-07T21:11:55.960Z,11.30
2022-12-07T21:14:24.519Z,11.20
2022-12-07T21:16:52.772Z,11.20
2022-12-07T21:19:22.406Z,11.20
2022-12-07T21:21:50.643Z,11.20
2022-12-07T21:24:18.988Z,11.20
2022-12-07T21:26:47.301Z,11.20
2022-12-07T21:29:15.569Z,11.20
2022-12-07T21:31:44.858Z,11.20
2022-12-07T21:34:13.205Z,11.20
2022-12-07T21:36:42.824Z,11.10
2022-12-07T21:39:11.886Z,11.10
2022-12-07T21:41:40.278Z,11.10
2022-12-07T21:44:10.450Z,11.10
2022-12-07T21:46:39.938Z,11.10
2022-12-07T21:49:11.863Z,11.10
2022-12-07T21:51:41.178Z,11.00
2022-12-07T21:54:12.529Z,11.00
2022-12-07T21:56:42.431Z,11.00
2022-12-07T21:59:13.599Z,11.00
2022-12-07T22:01:45.510Z,11.00
2022-12-07T22:04:17.274Z,11.10
2022-12-07T22:06:46.357Z,11.10
2022-12-07T22:09:18.820Z,11.00
2022-12-07T22:11:47.571Z,11.00
2022-12-07T22:14:33.593Z,11.00
2022-12-07T22:17:01.828Z,11.00
2022-12-07T22:19:30.048Z,11.00
2022-12-07T22:21:59.013Z,11.00
2022-12-07T22:24:28.635Z,11.00
2022-12-07T22:26:56.875Z,11.00
2022-12-07T22:29:26.110Z,10.90
2022-12-07T22:31:54.708Z,10.90
2022-12-07T22:34:23.194Z,10.90
2022-12-07T22:36:51.516Z,10.90
2022-12-07T22:39:19.859Z,10.90
2022-12-07T22:41:49.474Z,10.90
2022-12-07T22:44:18.963Z,10.90
2022-12-07T22:46:47.436Z,10.90
2022-12-07T22:49:15.733Z,10.90
2022-12-07T22:51:44.702Z,10.80
2022-12-07T22:54:16.684Z,10.80
2022-12-07T22:56:52.304Z,10.80
2022-12-07T22:59:20.516Z,10.80
2022-12-07T23:01:48.738Z,10.90
2022-12-07T23:04:17.887Z,10.90
2022-12-07T23:06:46.306Z,10.80
2022-12-07T23:09:14.865Z,10.90
2022-12-07T23:12:04.048Z,10.90
2022-12-07T23:14:35.727Z,10.90
2022-12-07T23:17:04.429Z,10.90
2022-12-07T23:19:32.695Z,10.90
2022-12-07T23:22:01.044Z,10.90
2022-12-07T23:24:29.470Z,10.90
2022-12-07T23:26:57.712Z,10.90
2022-12-07T23:29:25.929Z,10.80
2022-12-07T23:31:55.642Z,10.80
2022-12-07T23:34:23.930Z,10.80
2022-12-07T23:36:52.246Z,10.80
2022-12-07T23:39:20.539Z,10.80
2022-12-07T23:41:48.806Z,10.80
2022-12-07T23:44:17.064Z,10.70
2022-12-07T23:46:45.439Z,10.70
2022-12-07T23:49:15.161Z,10.80
2022-12-07T23:51:43.392Z,10.70
2022-12-07T23:54:12.821Z,10.70
2022-12-07T23:56:41.134Z,10.70
2022-12-07T23:59:11.954Z,10.70
